Flight Track Log - Related Links

Times and Time Zones

All times are in EDT time to prevent confusion due to time zone crossing. See the XOJ758 flight status page for this flight to view local times or setup timezone preferences in your user account.

Time Position Orientation Groundspeed Altitude Reporting Facility
EDT Latitude Longitude Course Direction KTS MPH feet Rate Location/Type
Wed 06:00:46 PM 39.2897 -106.9336 275° West 255 293 11,900  Level Denver Center
Wed 06:01:48 PM 39.2972 -107.0525 275° West 285 328 15,000 2,565 Climbing Denver Center
Wed 06:02:50 PM 39.2192 -107.0700 190° South 320 368 17,200 2,081 Climbing Denver Center
Wed 06:03:52 PM 39.1100 -107.0397 168° South 370 426 19,300 1,935 Climbing Denver Center
Wed 06:04:54 PM 39.0042 -107.0419 181° South 389 448 21,200 2,160 Climbing Denver Center
Wed 06:05:57 PM 38.8758 -107.0406 180° South 406 467 23,800 2,544 Climbing Denver Center
Wed 06:06:59 PM 38.7753 -107.0433 181° South 420 483 26,500 2,226 Climbing Denver Center
Wed 06:08:01 PM 38.6319 -107.0169 172° South 451 519 28,400 1,452 Climbing Denver Center
Wed 06:09:03 PM 38.5392 -106.8936 134° Southeast 486 559 29,500 1,059 Climbing Denver Center
Wed 06:10:17 PM 38.4358 -106.7178 127° Southeast 511 588 30,800 662 Climbing Denver Center
Wed 06:11:19 PM 38.3417 -106.5586 127° Southeast 540 621 31,000 194 Climbing Denver Center
Wed 06:12:21 PM 38.2514 -106.4058 127° Southeast 553 636 31,200 1,104 Climbing Denver Center
Wed 06:13:24 PM 38.1597 -106.2517 127° Southeast 548 631 33,300 2,064 Climbing Denver Center
Wed 06:14:26 PM 38.0525 -106.0697 127° Southeast 536 617 35,500 1,597 Climbing Denver Center
Wed 06:15:28 PM 37.9661 -105.9275 128° Southeast 533 613 36,600 968 Climbing Denver Center
Wed 06:16:30 PM 37.8611 -105.7561 128° Southeast 545 627 37,500 774 Climbing Denver Center
Wed 06:17:32 PM 37.7700 -105.6086 128° Southeast 554 638 38,200 677 Climbing Denver Center
Wed 06:18:34 PM 37.6636 -105.4333 127° Southeast 561 646 38,900 581 Climbing Denver Center
Wed 06:19:36 PM 37.5706 -105.2831 128° Southeast 565 650 39,400 581 Climbing Denver Center
Wed 06:20:38 PM 37.4653 -105.1125 128° Southeast 557 641 40,100 677 Climbing Denver Center
Wed 06:21:40 PM 37.3756 -104.9672 128° Southeast 555 639 40,800 677 Climbing Denver Center
Wed 06:22:42 PM 37.2731 -104.8042 128° Southeast 539 620 41,500 629 Climbing Denver Center
Wed 06:23:44 PM 37.1864 -104.6647 128° Southeast 537 618 42,100 526 Climbing Denver Center
Wed 06:24:59 PM 37.0847 -104.5053 129° Southeast 531 611 42,700 526 Climbing Denver Center
Wed 06:26:01 PM 36.9831 -104.3444 128° Southeast 531 611 43,300 594 Climbing Denver Center
Wed 06:26:40 PM 36.9108 -104.2303 128° Southeast 528 608 43,700 475 Climbing Albuquerque Center
Wed 06:27:42 PM 36.8247 -104.0964 129° Southeast 522 601 44,100 484 Climbing Albuquerque Center
Wed 06:28:44 PM 36.7250 -103.9431 129° Southeast 514 592 44,700 387 Climbing Albuquerque Center
Wed 06:29:46 PM 36.6458 -103.8217 129° Southeast 512 589 44,900 145 Climbing Albuquerque Center
Wed 06:30:48 PM 36.5403 -103.6558 128° Southeast 516 594 45,000 48 Climbing Albuquerque Center
Wed 06:31:50 PM 36.4478 -103.5161 129° Southeast 517 595 45,000  Level Albuquerque Center
Wed 06:32:00 PM 36.4302 -103.4867 129° Southeast  Level FlightAware Approximate
Wed 06:32:52 PM 36.3550 -103.3731 129° Southeast 523 602 45,000  Level Albuquerque Center
Wed 06:33:54 PM 36.2614 -103.2289 129° Southeast 528 608 45,000  Level Albuquerque Center
Wed 06:34:56 PM 36.1661 -103.0817 129° Southeast 536 617 45,000  Level Albuquerque Center
Wed 06:35:58 PM 36.0708 -102.9389 130° Southeast 534 615 45,000  Level Albuquerque Center
Wed 06:37:00 PM 35.9667 -102.7819 129° Southeast 536 617 45,000  Level Albuquerque Center
Wed 06:38:02 PM 35.8736 -102.6386 129° Southeast 536 617 45,000  Level Albuquerque Center
Wed 06:39:04 PM 35.8047 -102.4719 117° Southeast 546 628 45,000  Level Albuquerque Center
Wed 06:40:06 PM 35.7378 -102.3031 116° Southeast 548 631 45,000  Level Albuquerque Center
Wed 06:41:08 PM 35.6706 -102.1325 116° Southeast 552 635 45,000  Level Albuquerque Center
Wed 06:42:10 PM 35.6022 -101.9636 116° Southeast 552 635 45,000  Level Albuquerque Center
Wed 06:43:12 PM 35.5186 -101.7586 117° Southeast 555 639 45,000  Level Albuquerque Center
Wed 06:44:13 PM 35.4531 -101.5872 115° Southeast 554 638 45,000  Level Albuquerque Center
Wed 06:45:15 PM 35.3839 -101.4194 117° Southeast 553 636 45,000  Level Albuquerque Center
Wed 06:46:17 PM 35.3072 -101.2394 118° Southeast 561 646 45,000  Level Albuquerque Center
Wed 06:47:19 PM 35.2361 -101.0692 117° Southeast 561 646 45,000  Level Albuquerque Center
Wed 06:48:21 PM 35.1664 -100.8997 117° Southeast 559 643 45,000  Level Albuquerque Center
Wed 06:49:23 PM 35.0947 -100.7306 117° Southeast 559 643 45,000  Level Albuquerque Center
Wed 06:50:25 PM 35.0236 -100.5611 117° Southeast 561 646 45,000  Level Albuquerque Center
Wed 06:51:27 PM 34.9433 -100.3708 117° Southeast 559 643 45,000  Level Albuquerque Center
Wed 06:52:28 PM 34.8725 -100.2019 117° Southeast 560 644 45,000  Level Albuquerque Center
Wed 06:53:30 PM 34.8000 -100.0333 118° Southeast 562 647 45,000  Level Albuquerque Center
Wed 06:54:32 PM 34.7281 -99.8658 118° Southeast 562 647 45,000  Level Albuquerque Center
Wed 06:55:51 PM 34.6264 -99.6306 118° Southeast 561 646 45,000  Level Fort Worth Center
Wed 06:56:53 PM 34.5533 -99.4622 118° Southeast 562 647 45,000  Level Fort Worth Center
Wed 06:57:55 PM 34.4817 -99.2972 118° Southeast 560 644 45,000  Level Fort Worth Center
Wed 06:58:57 PM 34.4072 -99.1292 118° Southeast 561 646 45,000  Level Fort Worth Center
Wed 06:59:59 PM 34.3192 -98.9294 118° Southeast 562 647 45,000  Level Fort Worth Center
Wed 07:01:01 PM 34.2447 -98.7606 118° Southeast 566 651 45,000  Level Fort Worth Center
Wed 07:02:03 PM 34.1711 -98.5919 118° Southeast 567 652 45,000  Level Fort Worth Center
Wed 07:03:06 PM 34.0914 -98.4131 118° Southeast 568 654 45,000  Level Fort Worth Center
Wed 07:04:08 PM 34.0158 -98.2478 119° Southeast 567 652 45,000  Level Fort Worth Center
Wed 07:05:10 PM 33.9397 -98.0822 119° Southeast 567 652 45,000  Level Fort Worth Center
Wed 07:06:12 PM 33.8650 -97.9142 118° Southeast 567 652 45,000  Level Fort Worth Center
Wed 07:07:14 PM 33.7894 -97.7492 119° Southeast 567 652 45,000  Level Fort Worth Center
Wed 07:08:16 PM 33.6986 -97.5514 119° Southeast 564 649 45,000  Level Fort Worth Center
Wed 07:09:18 PM 33.6219 -97.3864 119° Southeast 564 649 45,000  Level Fort Worth Center
Wed 07:10:20 PM 33.5456 -97.2197 119° Southeast 565 650 45,000  Level Fort Worth Center
Wed 07:11:22 PM 33.4692 -97.0556 119° Southeast 565 650 45,000  Level Fort Worth Center
Wed 07:12:25 PM 33.3911 -96.8897 119° Southeast 565 650 45,000  Level Fort Worth Center
Wed 07:13:27 PM 33.3131 -96.7239 119° Southeast 565 650 45,000  Level Fort Worth Center
Wed 07:14:29 PM 33.2350 -96.5600 120° Southeast 565 650 45,000  Level Fort Worth Center
Wed 07:15:31 PM 33.1572 -96.3953 119° Southeast 566 651 45,000  Level Fort Worth Center
Wed 07:16:33 PM 33.0733 -96.2161 119° Southeast 565 650 45,000  Level Fort Worth Center
Wed 07:17:35 PM 32.9958 -96.0564 120° Southeast 563 648 45,000  Level Fort Worth Center
Wed 07:18:37 PM 32.9039 -95.8628 119° Southeast 563 648 45,000  Level Fort Worth Center
Wed 07:19:39 PM 32.8272 -95.7047 120° Southeast 561 646 45,000  Level Fort Worth Center
Wed 07:20:41 PM 32.7503 -95.5450 120° Southeast 561 646 45,000  Level Fort Worth Center
Wed 07:21:43 PM 32.6825 -95.4053 120° Southeast 561 646 45,000  Level Fort Worth Center
Wed 07:22:46 PM 32.5947 -95.2272 120° Southeast 560 644 45,000  Level Fort Worth Center
Wed 07:23:48 PM 32.5167 -95.0686 120° Southeast 560 644 45,000  Level Fort Worth Center
Wed 07:24:50 PM 32.4228 -94.8803 121° Southeast 560 644 45,000  Level Fort Worth Center
Wed 07:25:52 PM 32.3383 -94.7094 120° Southeast 560 644 45,000  Level Fort Worth Center
Wed 07:26:54 PM 32.2656 -94.5658 121° Southeast 559 643 45,000  Level Fort Worth Center
Wed 07:27:56 PM 32.1792 -94.3906 120° Southeast 560 644 45,000  Level Fort Worth Center
Wed 07:28:58 PM 32.0989 -94.2300 121° Southeast 562 647 45,000  Level Fort Worth Center
Wed 07:30:00 PM 32.0178 -94.0703 121° Southeast 563 648 45,000  Level Fort Worth Center
Wed 07:31:02 PM 31.9361 -93.9083 121° Southeast 569 655 45,000  Level Fort Worth Center
Wed 07:31:50 PM 31.8750 -93.7900 121° Southeast 570 656 45,000  Level Houston Center
Wed 07:32:52 PM 31.7772 -93.5981 121° Southeast 570 656 45,000  Level Houston Center
Wed 07:33:54 PM 31.6961 -93.4378 121° Southeast 571 657 45,000  Level Houston Center
Wed 07:34:57 PM 31.6147 -93.2817 121° Southeast 571 657 45,000  Level Houston Center
Wed 07:35:59 PM 31.5308 -93.1200 121° Southeast 573 659 45,000  Level Houston Center
Wed 07:37:01 PM 31.4475 -92.9603 121° Southeast 573 659 45,000  Level Houston Center
Wed 07:38:03 PM 31.3478 -92.7672 121° Southeast 573 659 45,000  Level Houston Center
Wed 07:39:05 PM 31.2636 -92.6069 122° Southeast 576 663 45,000  Level Houston Center
Wed 07:40:07 PM 31.1786 -92.4475 122° Southeast 577 664 45,000  Level Houston Center
Wed 07:41:09 PM 31.0953 -92.2889 122° Southeast 576 663 45,000  Level Houston Center
Wed 07:42:12 PM 31.0039 -92.1164 122° Southeast 573 659 45,000  Level Houston Center
Wed 07:43:14 PM 30.9208 -91.9611 122° Southeast 570 656 45,000  Level Houston Center
Wed 07:44:16 PM 30.8386 -91.8061 122° Southeast 568 654 45,000  Level Houston Center
Wed 07:45:18 PM 30.7547 -91.6508 122° Southeast 567 652 45,000  Level Houston Center
Wed 07:46:20 PM 30.6728 -91.4969 122° Southeast 566 651 45,000  Level Houston Center
Wed 07:47:23 PM 30.5822 -91.3297 122° Southeast 566 651 45,000  Level Houston Center
Wed 07:48:25 PM 30.4969 -91.1775 123° Southeast 566 651 45,000  Level Houston Center
Wed 07:49:27 PM 30.3997 -90.9942 122° Southeast 561 646 45,000  Level Houston Center
Wed 07:50:29 PM 30.3158 -90.8417 122° Southeast 561 646 45,000  Level Houston Center
Wed 07:51:31 PM 30.2314 -90.6897 123° Southeast 561 646 45,000  Level Houston Center
Wed 07:52:33 PM 30.1478 -90.5378 122° Southeast 562 647 45,000  Level Houston Center
Wed 07:53:35 PM 30.0619 -90.3856 123° Southeast 566 651 45,000  Level Houston Center
Wed 07:54:37 PM 29.9622 -90.2044 122° Southeast 566 651 45,000  Level Houston Center
Wed 07:55:39 PM 29.8775 -90.0539 123° Southeast 566 651 45,000  Level Houston Center
Wed 07:56:41 PM 29.7839 -89.9125 127° Southeast 565 650 45,000  Level Houston Center
Wed 07:57:43 PM 29.6839 -89.7781 131° Southeast 561 646 45,000  Level Houston Center
Wed 07:58:45 PM 29.5853 -89.6444 130° Southeast 556 640 45,000  Level Houston Center
Wed 07:59:47 PM 29.4669 -89.4825 130° Southeast 555 639 45,000  Level Houston Center
Wed 08:00:49 PM 29.3681 -89.3472 130° Southeast 555 639 45,000  Level Houston Center
Wed 08:01:51 PM 29.2697 -89.2169 131° Southeast 550 633 45,000  Level Houston Center
Wed 08:02:53 PM 29.1706 -89.0836 130° Southeast 550 633 45,000  Level Houston Center
Wed 08:03:55 PM 29.0733 -88.9525 130° Southeast 548 631 45,000  Level Houston Center
Wed 08:04:57 PM 28.9544 -88.7956 131° Southeast 548 631 45,000  Level Houston Center
Wed 08:05:59 PM 28.8547 -88.6636 131° Southeast 548 631 45,000  Level Houston Center
Wed 08:07:01 PM 28.7569 -88.5300 130° Southeast 548 631 45,000  Level Houston Center
Wed 08:08:03 PM 28.6561 -88.3989 131° Southeast 548 631 45,000  Level Houston Center
Wed 08:09:05 PM 28.5567 -88.2664 130° Southeast 550 633 45,000  Level Houston Center
Wed 08:10:07 PM 28.4569 -88.1336 130° Southeast 551 634 45,000  Level Houston Center
Wed 08:11:09 PM 28.3697 -87.9847 124° Southeast 554 638 45,000  Level Houston Center
Wed 08:12:11 PM 28.3089 -87.7775 108° East 577 664 45,000  Level Houston Center
Wed 08:13:13 PM 28.2550 -87.6106 110° East 575 662 45,000  Level Houston Center
Wed 08:14:15 PM 28.2003 -87.4450 111° Southeast 574 661 45,000  Level Houston Center
Wed 08:15:16 PM 28.1453 -87.2786 111° Southeast 570 656 45,000  Level Houston Center
Wed 08:16:18 PM 28.0914 -87.1117 110° East 570 656 45,000  Level Houston Center
Wed 08:17:20 PM 28.0364 -86.9439 110° East 569 655 45,000  Level Houston Center
Wed 08:18:22 PM 27.9697 -86.7450 111° Southeast 567 652 45,000  Level Houston Center
Wed 08:19:24 PM 27.9114 -86.5706 111° Southeast 569 655 45,000  Level Houston Center
Wed 08:20:26 PM 27.8553 -86.4039 111° Southeast 569 655 45,000  Level Houston Center
Wed 08:21:39 PM 27.7822 -86.1947 112° Southeast 562 647 45,000  Level Jacksonville Center
Wed 08:22:38 PM 27.7258 -86.0289 111° Southeast 562 647 45,000  Level Jacksonville Center
Wed 08:24:19 PM 27.6369 -85.7614 111° Southeast 566 651 45,000  Level Miami Center
Wed 08:25:19 PM 27.5681 -85.5925 115° Southeast 566 651 45,000  Level Miami Center
Wed 08:26:19 PM 27.5156 -85.4272 110° East 566 651 45,000  Level Miami Center
Wed 08:27:31 PM 27.4481 -85.2283 111° Southeast 572 658 45,000  Level Miami Center
Wed 08:28:31 PM 27.3908 -85.0631 111° Southeast 572 658 45,000  Level Miami Center
Wed 08:29:31 PM 27.3336 -84.8956 111° Southeast 572 658 45,000  Level Miami Center
Wed 08:30:31 PM 27.2781 -84.7308 111° Southeast 567 652 45,000  Level Miami Center
Wed 08:31:31 PM 27.2239 -84.5731 111° Southeast 561 646 45,000  Level Miami Center
Wed 08:32:31 PM 27.1658 -84.4131 112° Southeast 556 640 45,000 -100 Level Miami Center
Wed 08:33:31 PM 27.1114 -84.2533 111° Southeast 549 632 44,800 -500 Descending Miami Center
Wed 08:34:31 PM 27.0486 -84.0933 114° Southeast 549 632 44,000 -750 Descending Miami Center
Wed 08:35:31 PM 26.9939 -83.9364 111° Southeast 549 632 43,300 -750 Descending Miami Center
Wed 08:36:31 PM 26.9406 -83.7842 111° Southeast 543 625 42,500 -750 Descending Miami Center
Wed 08:37:31 PM 26.8853 -83.6319 112° Southeast 532 612 41,800 -950 Descending Miami Center
Wed 08:38:31 PM 26.8319 -83.4800 111° Southeast 525 604 40,600 -1,250 Descending Miami Center
Wed 08:39:31 PM 26.7761 -83.3306 113° Southeast 525 604 39,300 -1,300 Descending Miami Center
Wed 08:40:31 PM 26.7200 -83.1786 112° Southeast 525 604 38,000 -1,250 Descending Miami Center
Wed 08:41:31 PM 26.6642 -83.0247 112° Southeast 530 610 36,800 -1,250 Descending Miami Center
Wed 08:42:31 PM 26.6078 -82.8733 113° Southeast 524 603 35,500 -1,300 Descending Miami Center
Wed 08:43:31 PM 26.5514 -82.7194 112° Southeast 529 609 34,200 -1,300 Descending Miami Center
Wed 08:44:31 PM 26.4950 -82.5658 112° Southeast 535 616 32,900 -1,450 Descending Miami Center
Wed 08:45:31 PM 26.4328 -82.3961 112° Southeast 529 609 31,300 -1,450 Descending Miami Center
Wed 08:46:31 PM 26.3756 -82.2497 114° Southeast 523 602 30,000 -1,500 Descending Miami Center
Wed 08:47:31 PM 26.3206 -82.1014 112° Southeast 523 602 28,300 -2,000 Descending Miami Center
Wed 08:48:31 PM 26.2692 -81.9578 112° Southeast 507 583 26,000 -2,250 Descending Miami Center
Wed 08:49:31 PM 26.2197 -81.8167 111° Southeast 502 578 23,800 -2,200 Descending Miami Center
Wed 08:50:31 PM 26.1656 -81.6850 115° Southeast 482 555 21,600 -2,100 Descending Miami Center
Wed 08:51:31 PM 26.1197 -81.5583 112° Southeast 464 534 19,600 -2,050 Descending Miami Center
Wed 08:52:31 PM 26.0714 -81.4339 113° Southeast 439 505 17,500 -2,050 Descending Miami Center
Wed 08:53:31 PM 26.0250 -81.3164 114° Southeast 419 482 15,500 -1,850 Descending Miami Center
Wed 08:54:31 PM 25.9825 -81.2039 113° Southeast 400 460 13,800 -1,733 Descending Miami Center
Wed 08:55:01 PM 25.9589 -81.1547 118° Southeast 362 417 12,900 -1,700 Descending Miami Center
Wed 08:55:31 PM 25.9436 -81.1033 108° East 373 429 12,100 -1,459 Descending Miami Center
Wed 08:55:38 PM 25.9356 -81.0936 133° Southeast 336 387 12,000 -1,433 Descending Miami Center
Wed 08:56:38 PM 25.9006 -81.0047 114° Southeast 308 354 10,500 -1,274 Descending Miami Center
Wed 08:57:31 PM 25.8900 -80.9306 99° East 307 353 9,600 -1,091 Descending Miami Center
Wed 08:57:33 PM 25.8922 -80.9261 61° Northeast 278 320 9,500 -1,400 Descending Miami Center
Wed 08:58:31 PM 25.9111 -80.8506 74° East 267 307 8,200 -1,279 Descending Miami Center
Wed 08:58:34 PM 25.9089 -80.8481 135° Southeast 268 308 8,200 -1,900 Level Miami Center
Wed 08:59:31 PM 25.9300 -80.7678 74° East 267 307 6,300 -1,869 Descending Miami Center
Wed 08:59:35 PM 25.9281 -80.7656 134° Southeast 274 315 6,300 -1,754 Level Miami Center
Wed 09:00:36 PM 25.9511 -80.6783 74° East 289 333 4,400 -1,853 Descending Miami Center
Wed 09:00:43 PM 25.9575 -80.6694 51° Northeast 278 320 4,200 -1,082 Descending Miami Center
Wed 09:01:37 PM 25.9658 -80.5958 83° East 254 292 3,300 -1,100 Descending Miami Center
Wed 09:01:43 PM 25.9681 -80.5889 70° East 273 314 3,100 -1,082 Descending Miami Center
Wed 09:02:38 PM 25.9717 -80.5267 86° East 226 260 2,200 -1,100 Descending Miami Center
Wed 09:02:43 PM 25.9739 -80.5197 70° East 251 289 2,000 -197 Descending Miami Center
Wed 09:03:39 PM 25.9775 -80.4622 86° East 194 223 2,000 -100 Level Miami Center
Wed 09:03:43 PM 25.9794 -80.4644 314° West 225 259 1,900 -200 Descending Miami Center
Wed 09:04:39 PM 25.9725 -80.4089 98° East 185 213 1,800 -100 Descending Miami Center
Wed 09:04:43 PM 25.9789 -80.4067 17° North 194 223 1,800 -295 Level Miami Center
Wed 09:05:40 PM 25.9483 -80.3664 130° Southeast 132 152 1,500 -407 Descending Miami Center
Wed 09:06:41 PM 25.9325 -80.3314 117° Southeast 127 146 1,000 -590 Descending Miami Center
Wed 09:07:42 PM 25.9144 -80.2986 121° Southeast 119 137 300 -689 Descending Miami Center
Wed 09:09:00 PM 25.9074 -80.2782 111° Southeast  Level Estimated

Login

Don't have an account? Register now (free) for customized features, flight alerts, and more!